Norcross, Minnesota
Current Conditions -  °F | °C
As of 7:36 PM on Tuesday 21 Oct 2014 (Local Time) from KY63 Reporting Station
Clear Clear  
Wind Chill: 55°   Ceiling: Unl
Heat Index: 55°   Visibility: 10mi
Dew Point: 41°   Wind: 15mph
Humidity: 58%   Direction: 130°SE
Pressure: 29.99"   Gusts: 22mph
Location:  45.87°N, 96.2°W
Report Text: KY63 220036Z AUTO 13013G19KT 10SM CLR 13/05 A2999 RMK AO2 T01300048
Loading
Personal Weather Stations






























Interactive Weather Map
Tropical Storm Tracking
New forecast layout! Learn more

10-Day Weather Forecast

Advertisements
Track Severe Weather on mobile